首页
METAR-TAF:

METAR-TAF

机场 :

阿卡普尔科, 墨西哥

纬度: 16-46N, 经度: 099-45W, 海拔: 5米

当前天气观测

该预报发布于30分钟前的20:48 UTC
风速6节,风向
温度 28°C
湿度 70%
气压 1014 hPa
能見度: 12.9公里
散云层高于8000英尺
阴天层高于10000英尺

METAR: MMAA 182048Z 01006KT 8SM SCT080 OVC100 28/22 A2993 RMK SLP134 57011 920 8/07/ DSNT CB NE

时间: 16:18 (21:18 UTC)

预报

该预报发布于4小时和24分钟前的16:54 UTC
预报有效从18日的 18点(UTC)到 19日的 24点(UTC)
风速5节,风向东北
能見度: 10公里
散云层高于1500英尺
多云层高于8000英尺
从 18日的 2000点(UTC)
风速12节,风向北转东北
能見度: 10公里
散云层高于1500英尺, 积雨云.
多云层高于8000英尺
短暂存在
从 18日的 22点(UTC)到 19日的 02点(UTC)
附近有, 雨
从 19日的 0300点(UTC)
风速5节,风向
能見度: 9.7公里
散云层高于1500英尺
从 19日的 1800点(UTC)
风速6节,风向
能見度: 10公里
散云层高于1500英尺
多云层高于10000英尺
成为
从 19日的 20点(UTC)到 19日的 21点(UTC)
风速12节,风向北转西北

TAF: MMAA 181654Z 1818/1924 05005KT P6SM SCT015 BKN080 TX28/1821Z TN24/1913Z FM182000 03012KT P6SM SCT015CB BKN080 TEMPO 1822/1902 VC RA FM190300 36005KT P6SM SCT015 BKN080BECMG 1912/1913 6SM HZ FM191800 36006KT P6SM SCT015 BKN100 BECMG 1920/1921 34012KT

超过4000个机场的气象观测和天气预报(METAR&TAF报告)。

可查询的气象台以黄色和红色小点在地图上表示。

将鼠标移到小点上方,可查看气象台名称。

然后点击查看天气观测和预报。

如需切换地图:点击带黑十字的绿色按钮放大地图;点击带横线的绿色按钮缩小地图;或者点击绿色箭头查看邻近地区的地图。


METAR-TAF: